Time;durP1;ratioP1;P1;durP2;ratioP2;P2;SDS_P1;SDS_P2;PMS_P1;PMS_P2;Temp;Humidity;BMP_temperature;BMP_pressure;BME280_temperature;BME280_humidity;BME280_pressure;Samples;Min_cycle;Max_cycle;Signal;HPM_P1;HPM_P2
2023/08/09 00:00:28;;;;;;;10.93;10.63;;;16.40;99.90;;;;;;6197413;23;20196;-81
2023/08/09 00:02:55;;;;;;;10.65;10.35;;;16.40;99.90;;;;;;6196547;23;20284;-80
2023/08/09 00:05:23;;;;;;;10.80;10.50;;;16.40;99.90;;;;;;6197048;23;20263;-80
2023/08/09 00:07:50;;;;;;;10.80;10.50;;;16.30;99.90;;;;;;6196226;23;20207;-80
2023/08/09 00:10:17;;;;;;;10.70;10.40;;;16.20;99.90;;;;;;6196960;23;20199;-80
2023/08/09 00:12:44;;;;;;;11.05;10.75;;;16.20;99.90;;;;;;6198216;23;20223;-80
2023/08/09 00:15:12;;;;;;;10.90;10.60;;;16.10;99.90;;;;;;6198154;23;20206;-80
2023/08/09 00:17:41;;;;;;;10.90;10.60;;;15.90;99.90;;;;;;6196772;23;20218;-79
2023/08/09 00:20:11;;;;;;;10.90;10.60;;;15.90;99.90;;;;;;6196295;23;20218;-79
2023/08/09 00:22:38;;;;;;;10.90;10.60;;;15.80;99.90;;;;;;6195506;23;20204;-80
2023/08/09 00:25:06;;;;;;;10.70;10.40;;;15.70;99.90;;;;;;6201066;23;20222;-80
2023/08/09 00:27:33;;;;;;;10.70;10.40;;;15.70;99.90;;;;;;6199551;23;20234;-79
2023/08/09 00:30:00;;;;;;;10.57;10.27;;;15.60;99.90;;;;;;6198185;23;20211;-79
2023/08/09 00:32:27;;;;;;;10.13;9.82;;;15.60;99.90;;;;;;6197707;23;20290;-78
2023/08/09 00:34:56;;;;;;;10.40;10.10;;;15.50;99.90;;;;;;6196119;23;20203;-80
2023/08/09 00:37:23;;;;;;;9.73;9.43;;;15.40;99.90;;;;;;6194540;23;20208;-80
2023/08/09 00:39:50;;;;;;;10.30;10.00;;;15.40;99.90;;;;;;6194502;23;20206;-80
2023/08/09 00:42:17;;;;;;;9.90;9.60;;;15.30;99.90;;;;;;6194885;23;20271;-79
2023/08/09 00:44:44;;;;;;;9.80;9.50;;;15.30;99.90;;;;;;6195447;23;20203;-80
2023/08/09 00:47:12;;;;;;;9.73;9.43;;;15.20;99.90;;;;;;6195458;23;20739;-80
2023/08/09 00:49:39;;;;;;;9.38;9.07;;;15.20;99.90;;;;;;6195638;23;20219;-80
2023/08/09 00:52:08;;;;;;;9.60;9.30;;;15.20;99.90;;;;;;6195413;23;20279;-78
2023/08/09 00:54:40;;;;;;;9.23;8.93;;;15.10;99.90;;;;;;6193779;23;20247;-80
2023/08/09 00:57:08;;;;;;;9.30;9.00;;;15.00;99.90;;;;;;6194045;23;20224;-79
2023/08/09 00:59:35;;;;;;;9.30;9.00;;;14.90;99.90;;;;;;6194263;23;20203;-79
2023/08/09 01:02:02;;;;;;;9.18;8.88;;;14.80;99.90;;;;;;6193628;23;20270;-79
2023/08/09 01:04:29;;;;;;;9.10;8.80;;;14.80;99.90;;;;;;6193521;23;20191;-80
2023/08/09 01:07:11;;;;;;;9.20;8.90;;;14.70;99.90;;;;;;6194970;23;20199;-79
2023/08/09 01:09:43;;;;;;;9.20;8.90;;;14.70;99.90;;;;;;6195603;23;20231;-80
2023/08/09 01:12:15;;;;;;;8.80;8.50;;;14.60;99.90;;;;;;6197110;23;20192;-79
2023/08/09 01:14:44;;;;;;;9.07;8.77;;;14.60;99.90;;;;;;6200734;23;20191;-79
2023/08/09 01:17:15;;;;;;;9.00;8.70;;;14.60;99.90;;;;;;6199015;23;20202;-79
2023/08/09 01:19:48;;;;;;;9.00;8.70;;;14.60;99.90;;;;;;6196022;23;20262;-81
2023/08/09 01:22:23;;;;;;;8.85;8.55;;;14.60;99.90;;;;;;6198388;23;20199;-80
2023/08/09 01:24:51;;;;;;;9.00;8.70;;;14.50;99.90;;;;;;6199884;23;20222;-80
2023/08/09 01:27:18;;;;;;;8.50;8.30;;;14.40;99.90;;;;;;6199460;23;20251;-80
2023/08/09 01:29:46;;;;;;;8.30;8.10;;;14.40;99.90;;;;;;6199957;23;20207;-80
2023/08/09 01:32:13;;;;;;;8.27;8.07;;;14.40;99.90;;;;;;6201518;23;20291;-80
2023/08/09 01:34:40;;;;;;;8.43;8.23;;;14.30;99.90;;;;;;6210953;23;20195;-79
2023/08/09 01:37:19;;;;;;;8.30;8.10;;;14.30;99.90;;;;;;6219716;23;20180;-79
2023/08/09 01:39:51;;;;;;;8.43;8.23;;;14.20;99.90;;;;;;6219981;23;20191;-80
2023/08/09 01:42:19;;;;;;;8.27;8.07;;;14.20;99.90;;;;;;6219496;22;20236;-79
2023/08/09 01:44:47;;;;;;;8.20;8.00;;;14.10;99.90;;;;;;6213803;23;20202;-79
2023/08/09 01:47:14;;;;;;;8.17;7.97;;;14.10;99.90;;;;;;6205657;23;20204;-80
2023/08/09 01:49:46;;;;;;;8.30;8.10;;;14.10;99.90;;;;;;6200635;23;20283;-79
2023/08/09 01:52:13;;;;;;;8.00;7.80;;;14.00;99.90;;;;;;6200788;23;20247;-80
2023/08/09 01:54:40;;;;;;;8.40;8.20;;;14.00;99.90;;;;;;6200258;23;20216;-80
2023/08/09 01:57:09;;;;;;;8.17;7.97;;;14.00;99.90;;;;;;6199901;23;20232;-80
2023/08/09 01:59:36;;;;;;;8.17;7.97;;;13.90;99.90;;;;;;6198554;23;20204;-80
2023/08/09 02:02:04;;;;;;;8.20;8.00;;;13.90;99.90;;;;;;6198491;23;20243;-80
2023/08/09 02:04:31;;;;;;;8.13;7.93;;;13.90;99.90;;;;;;6199787;23;20191;-80
2023/08/09 02:06:59;;;;;;;8.20;8.00;;;13.90;99.90;;;;;;6199824;23;20207;-80
2023/08/09 02:09:26;;;;;;;8.30;8.10;;;13.80;99.90;;;;;;6195289;23;20267;-80
2023/08/09 02:11:53;;;;;;;8.20;8.00;;;13.80;99.90;;;;;;6196224;23;20319;-80
2023/08/09 02:14:23;;;;;;;8.40;8.20;;;13.80;99.90;;;;;;6197311;23;20195;-79
2023/08/09 02:16:50;;;;;;;8.00;7.80;;;13.70;99.90;;;;;;6198918;23;20192;-81
2023/08/09 02:19:17;;;;;;;8.13;7.93;;;13.70;99.90;;;;;;6198329;23;20290;-80
2023/08/09 02:21:44;;;;;;;8.20;8.00;;;13.70;99.90;;;;;;6198325;23;20219;-81
2023/08/09 02:24:11;;;;;;;7.80;7.60;;;13.70;99.90;;;;;;6198482;23;20196;-81
2023/08/09 02:26:39;;;;;;;7.70;7.50;;;13.80;99.90;;;;;;6199390;23;20192;-81
2023/08/09 02:29:06;;;;;;;8.10;7.90;;;13.80;99.90;;;;;;6200355;23;20275;-81
2023/08/09 02:31:35;;;;;;;7.90;7.70;;;13.80;99.90;;;;;;6197981;23;20274;-80
2023/08/09 02:34:02;;;;;;;7.60;7.40;;;13.70;99.90;;;;;;6198935;23;20223;-80
2023/08/09 02:36:29;;;;;;;7.70;7.50;;;13.70;99.90;;;;;;6198466;23;20203;-80
2023/08/09 02:38:56;;;;;;;7.90;7.70;;;13.80;99.90;;;;;;6199550;23;20207;-81
2023/08/09 02:41:23;;;;;;;7.90;7.70;;;13.70;99.90;;;;;;6198660;23;20200;-80
2023/08/09 02:43:50;;;;;;;7.97;7.77;;;13.70;99.90;;;;;;6199101;23;20219;-80
2023/08/09 02:46:17;;;;;;;7.83;7.63;;;13.70;99.90;;;;;;6198985;23;20705;-81
2023/08/09 02:48:46;;;;;;;7.90;7.70;;;13.70;99.90;;;;;;6199110;23;20282;-81
2023/08/09 02:51:13;;;;;;;8.10;7.90;;;13.70;99.90;;;;;;6200115;23;20254;-81
2023/08/09 02:54:00;;;;;;;8.00;7.80;;;13.70;99.90;;;;;;6199474;23;20204;-81
2023/08/09 02:56:27;;;;;;;8.10;7.90;;;13.70;99.90;;;;;;6203682;23;20218;-81
2023/08/09 02:58:54;;;;;;;8.10;7.90;;;13.70;99.90;;;;;;6201301;23;20199;-81
2023/08/09 03:01:22;;;;;;;8.20;8.00;;;13.80;99.90;;;;;;6200562;23;20198;-81
2023/08/09 03:03:52;;;;;;;8.20;8.00;;;13.80;99.90;;;;;;6200078;23;20198;-80
2023/08/09 03:06:21;;;;;;;8.20;8.00;;;13.80;99.90;;;;;;6198978;23;20259;-81
2023/08/09 03:08:48;;;;;;;8.37;8.17;;;13.80;99.90;;;;;;6198572;23;20230;-81
2023/08/09 03:11:15;;;;;;;8.13;7.93;;;13.80;99.90;;;;;;6199377;23;20210;-81
2023/08/09 03:13:43;;;;;;;8.00;7.80;;;13.80;99.90;;;;;;6199051;23;20196;-82
2023/08/09 03:16:10;;;;;;;8.00;7.80;;;13.80;99.90;;;;;;6198588;23;20202;-80
2023/08/09 03:18:37;;;;;;;7.90;7.70;;;13.80;99.90;;;;;;6199119;23;20231;-80
2023/08/09 03:21:05;;;;;;;7.93;7.73;;;13.80;99.90;;;;;;6199771;23;20247;-80
2023/08/09 03:23:33;;;;;;;7.90;7.70;;;13.80;99.90;;;;;;6199233;23;20202;-80
2023/08/09 03:26:00;;;;;;;8.10;7.90;;;13.80;99.90;;;;;;6199635;23;20204;-81
2023/08/09 05:16:25;;;;;;;;;;;;;;;;;;;;;
2023/08/09 09:31:01;;;;;;;9.30;9.00;;;17.30;99.90;;;;;;6139654;22;1262436;-80
2023/08/09 09:33:34;;;;;;;9.07;8.77;;;17.30;99.90;;;;;;6204195;23;20209;-80
2023/08/09 09:36:01;;;;;;;9.07;8.77;;;17.30;99.90;;;;;;6208867;23;20199;-79
2023/08/09 09:38:32;;;;;;;9.57;9.27;;;17.30;99.90;;;;;;6202817;23;20199;-80
2023/08/09 09:41:01;;;;;;;9.40;9.10;;;17.40;99.90;;;;;;6201336;23;20278;-80
2023/08/09 09:43:32;;;;;;;9.50;9.20;;;17.60;99.90;;;;;;6201590;23;20223;-79
2023/08/09 09:46:01;;;;;;;9.65;9.35;;;17.70;99.90;;;;;;6201471;23;20209;-80
2023/08/09 09:48:29;;;;;;;9.77;9.48;;;17.80;99.90;;;;;;6202043;23;20270;-80
2023/08/09 09:50:57;;;;;;;9.77;9.48;;;17.90;99.90;;;;;;6201898;23;20337;-80
2023/08/09 09:53:24;;;;;;;9.77;9.48;;;18.10;99.90;;;;;;6202317;23;20301;-80
2023/08/09 09:55:51;;;;;;;10.10;9.80;;;18.20;99.90;;;;;;6212587;23;20211;-80
2023/08/09 09:58:19;;;;;;;10.30;10.00;;;18.10;99.90;;;;;;6205537;23;20203;-80
2023/08/09 10:00:48;;;;;;;10.20;9.90;;;18.10;99.90;;;;;;6204428;23;20210;-80
2023/08/09 10:03:26;;;;;;;10.00;9.70;;;18.30;99.90;;;;;;6202755;23;20250;-79
2023/08/09 10:05:54;;;;;;;10.20;9.90;;;18.30;99.90;;;;;;6201681;23;20282;-80
2023/08/09 10:08:23;;;;;;;9.85;9.55;;;18.30;99.90;;;;;;6201931;23;20282;-80
2023/08/09 10:10:52;;;;;;;9.77;9.48;;;18.10;99.90;;;;;;6201623;23;20199;-80
2023/08/09 10:13:22;;;;;;;10.10;9.80;;;18.10;99.90;;;;;;6201146;23;20203;-80
2023/08/09 10:15:53;;;;;;;10.02;9.73;;;18.00;99.90;;;;;;6199350;23;20184;-80
2023/08/09 10:18:36;;;;;;;10.00;9.70;;;18.10;99.90;;;;;;6194881;23;20211;-80
2023/08/09 10:21:04;;;;;;;9.98;9.68;;;18.10;99.90;;;;;;6193716;23;20242;-79
2023/08/09 10:23:32;;;;;;;10.18;9.88;;;18.30;99.90;;;;;;6201927;23;20236;-79
2023/08/09 10:26:00;;;;;;;10.13;9.82;;;18.30;99.90;;;;;;6195795;23;20199;-80
2023/08/09 10:28:49;;;;;;;10.30;10.00;;;18.50;99.90;;;;;;6195631;23;20210;-78
2023/08/09 10:31:47;;;;;;;10.15;9.85;;;18.60;99.90;;;;;;6194702;23;20287;-79
2023/08/09 10:34:17;;;;;;;10.10;9.80;;;18.80;99.90;;;;;;6194007;23;20261;-80
2023/08/09 10:36:54;;;;;;;10.30;10.00;;;19.10;99.90;;;;;;6193305;23;20227;-78
2023/08/09 10:39:24;;;;;;;10.40;10.10;;;19.40;99.90;;;;;;6194797;23;20271;-79
2023/08/09 10:42:01;;;;;;;10.43;10.13;;;19.70;99.90;;;;;;6190831;23;20204;-79
2023/08/09 10:44:41;;;;;;;10.60;10.30;;;19.70;99.90;;;;;;6190575;23;20195;-79
2023/08/09 10:47:13;;;;;;;10.40;10.10;;;19.60;99.90;;;;;;6190921;23;20200;-80
2023/08/09 10:50:03;;;;;;;10.38;10.07;;;19.10;99.90;;;;;;6190680;23;20214;-79
2023/08/09 10:52:34;;;;;;;10.60;10.30;;;19.00;99.90;;;;;;6190253;23;20195;-79
2023/08/09 10:55:38;;;;;;;10.30;10.00;;;18.80;99.90;;;;;;6190034;23;20192;-78
2023/08/09 10:58:05;;;;;;;10.50;10.20;;;18.60;99.90;;;;;;6190955;23;20207;-79
2023/08/09 11:00:42;;;;;;;10.13;9.82;;;18.40;99.90;;;;;;6190068;23;20207;-79
2023/08/09 11:03:11;;;;;;;10.20;9.90;;;18.30;99.90;;;;;;6190214;23;20195;-78
2023/08/09 11:05:40;;;;;;;9.88;9.57;;;18.10;99.90;;;;;;6190137;23;20250;-77
2023/08/09 11:08:16;;;;;;;9.45;9.15;;;17.90;99.90;;;;;;6190298;23;20246;-79
2023/08/09 11:10:43;;;;;;;9.50;9.20;;;17.80;99.90;;;;;;6190973;23;20207;-78
2023/08/09 11:13:13;;;;;;;9.65;9.35;;;17.80;99.90;;;;;;6196866;23;20202;-79
2023/08/09 11:15:43;;;;;;;9.30;9.00;;;17.80;99.90;;;;;;6190516;23;20272;-79
2023/08/09 11:18:11;;;;;;;9.18;8.88;;;17.90;99.90;;;;;;6191173;23;20246;-78
2023/08/09 11:20:38;;;;;;;9.30;9.00;;;18.10;99.90;;;;;;6191131;22;20251;-79
2023/08/09 11:23:06;;;;;;;9.40;9.10;;;18.20;99.90;;;;;;6190164;23;20261;-79
2023/08/09 11:25:34;;;;;;;9.75;9.45;;;18.40;99.90;;;;;;6190264;23;20219;-79
2023/08/09 11:28:04;;;;;;;9.80;9.50;;;18.60;99.90;;;;;;6189111;22;20219;-77
2023/08/09 11:30:33;;;;;;;10.00;9.70;;;18.70;99.90;;;;;;6190077;23;20211;-79
2023/08/09 11:33:03;;;;;;;9.82;9.52;;;18.80;99.90;;;;;;6189662;23;20201;-79
2023/08/09 11:35:33;;;;;;;9.63;9.32;;;18.80;99.90;;;;;;6189795;23;20200;-78
2023/08/09 11:38:00;;;;;;;9.73;9.43;;;18.90;99.90;;;;;;6189672;23;20257;-79
2023/08/09 11:40:28;;;;;;;9.82;9.52;;;19.00;99.90;;;;;;6189560;23;20210;-77
2023/08/09 11:42:59;;;;;;;10.10;9.80;;;18.90;99.90;;;;;;6189997;23;20295;-78
2023/08/09 11:45:27;;;;;;;9.70;9.40;;;18.90;99.90;;;;;;6190217;23;20632;-79
2023/08/09 11:47:55;;;;;;;9.65;9.35;;;19.10;99.90;;;;;;6189663;23;20342;-79
2023/08/09 11:50:24;;;;;;;9.82;9.52;;;19.20;99.90;;;;;;6189812;23;20219;-78
2023/08/09 11:52:55;;;;;;;9.75;9.45;;;19.50;99.90;;;;;;6189179;23;20238;-79
2023/08/09 11:55:25;;;;;;;9.80;9.50;;;19.60;99.90;;;;;;6189407;23;20319;-79
2023/08/09 11:57:53;;;;;;;9.93;9.63;;;19.40;99.90;;;;;;6189610;23;20204;-79
2023/08/09 12:00:27;;;;;;;10.05;9.75;;;19.20;99.90;;;;;;6189667;23;20218;-79
2023/08/09 12:02:59;;;;;;;10.10;9.80;;;19.00;99.90;;;;;;6198002;23;20190;-78
2023/08/09 12:05:26;;;;;;;10.10;9.80;;;18.90;99.90;;;;;;6189291;23;20202;-78
2023/08/09 12:08:03;;;;;;;10.25;9.95;;;18.90;99.90;;;;;;6187931;23;20259;-79
2023/08/09 12:10:30;;;;;;;10.20;9.90;;;19.00;99.90;;;;;;6188284;23;20203;-78
2023/08/09 12:12:58;;;;;;;10.55;10.25;;;19.00;99.90;;;;;;6188439;23;20210;-78
2023/08/09 12:15:26;;;;;;;10.20;9.90;;;19.10;99.90;;;;;;6188868;23;20196;-79
2023/08/09 12:17:54;;;;;;;10.00;9.70;;;19.30;99.90;;;;;;6189499;23;20255;-79
2023/08/09 12:20:21;;;;;;;9.90;9.60;;;19.50;99.90;;;;;;6190005;23;20203;-79
2023/08/09 12:22:48;;;;;;;10.00;9.70;;;19.70;99.90;;;;;;6192780;23;20200;-78
2023/08/09 12:25:15;;;;;;;9.98;9.68;;;19.70;99.90;;;;;;6201526;23;20195;-78
2023/08/09 12:27:43;;;;;;;9.98;9.68;;;19.60;99.90;;;;;;6196528;23;20223;-78
2023/08/09 12:30:12;;;;;;;10.07;9.77;;;19.60;99.90;;;;;;6189524;23;20204;-79
2023/08/09 12:32:40;;;;;;;10.25;9.95;;;19.60;99.90;;;;;;6189091;23;20231;-77
2023/08/09 12:35:09;;;;;;;9.82;9.52;;;19.50;99.90;;;;;;6189789;23;20239;-78
2023/08/09 12:37:36;;;;;;;10.50;10.20;;;19.40;99.90;;;;;;6189706;23;20238;-79
2023/08/09 12:40:06;;;;;;;10.30;10.00;;;19.40;99.90;;;;;;6190189;23;20207;-79
2023/08/09 12:42:34;;;;;;;10.18;9.88;;;19.50;99.90;;;;;;6189214;23;20188;-79
2023/08/09 12:45:01;;;;;;;10.00;9.70;;;19.50;99.90;;;;;;6188702;23;20291;-79
2023/08/09 12:47:29;;;;;;;10.00;9.70;;;19.60;99.90;;;;;;6189009;23;20212;-78
2023/08/09 12:49:56;;;;;;;10.10;9.80;;;19.60;99.90;;;;;;6188928;23;20278;-79
2023/08/09 12:52:23;;;;;;;9.80;9.50;;;19.60;99.90;;;;;;6189077;23;20286;-79
2023/08/09 12:54:51;;;;;;;9.90;9.60;;;19.70;99.90;;;;;;6198580;23;20266;-78
2023/08/09 12:57:18;;;;;;;10.05;9.75;;;19.70;99.90;;;;;;6194175;23;20208;-77
2023/08/09 12:59:45;;;;;;;10.43;10.13;;;19.80;99.90;;;;;;6194008;23;20222;-79
2023/08/09 13:02:12;;;;;;;10.23;9.93;;;19.80;99.90;;;;;;6190366;23;20203;-79
2023/08/09 13:04:41;;;;;;;10.27;9.98;;;19.90;99.90;;;;;;6191667;23;20208;-79
2023/08/09 13:07:08;;;;;;;10.48;10.18;;;20.00;99.90;;;;;;6189488;23;20221;-78
2023/08/09 13:09:36;;;;;;;10.35;10.05;;;20.10;99.90;;;;;;6188896;23;20207;-79
2023/08/09 13:12:06;;;;;;;10.18;9.88;;;20.10;99.90;;;;;;6188622;23;20215;-79
2023/08/09 13:14:33;;;;;;;10.50;10.20;;;20.20;99.90;;;;;;6189124;23;20202;-78
2023/08/09 13:17:00;;;;;;;10.50;10.20;;;19.90;99.90;;;;;;6189616;23;20200;-79
2023/08/09 13:19:27;;;;;;;10.60;10.30;;;20.00;99.90;;;;;;6189997;23;20215;-79
2023/08/09 13:21:55;;;;;;;10.60;10.30;;;20.10;99.90;;;;;;6189305;23;20192;-79
2023/08/09 13:24:22;;;;;;;10.60;10.30;;;20.00;99.90;;;;;;6189044;23;20196;-78
2023/08/09 13:26:49;;;;;;;10.40;10.10;;;19.90;99.90;;;;;;6190053;23;20199;-79
2023/08/09 13:29:16;;;;;;;10.38;10.07;;;19.70;99.90;;;;;;6190237;23;20267;-78
2023/08/09 13:31:43;;;;;;;10.30;10.00;;;19.60;99.90;;;;;;6189738;23;20202;-79
2023/08/09 13:34:10;;;;;;;10.35;10.05;;;19.50;99.90;;;;;;6189311;23;20207;-78
2023/08/09 13:36:37;;;;;;;10.00;9.70;;;19.60;99.90;;;;;;6189682;23;20206;-78
2023/08/09 13:39:07;;;;;;;10.00;9.70;;;19.70;99.90;;;;;;6189529;23;20214;-78
2023/08/09 13:41:35;;;;;;;9.85;9.55;;;19.70;99.90;;;;;;6188565;23;20195;-79
2023/08/09 13:44:02;;;;;;;10.10;9.80;;;19.70;99.90;;;;;;6194659;23;20188;-79
2023/08/09 13:46:31;;;;;;;10.35;10.05;;;19.70;99.90;;;;;;6187340;23;20199;-79
2023/08/09 13:48:58;;;;;;;10.10;9.80;;;19.70;99.90;;;;;;6188025;23;20196;-79
2023/08/09 13:51:25;;;;;;;10.35;10.05;;;19.70;99.90;;;;;;6188401;23;20263;-78
2023/08/09 13:53:54;;;;;;;10.25;9.95;;;19.70;99.90;;;;;;6190525;23;20199;-79
2023/08/09 13:56:23;;;;;;;10.20;9.90;;;19.70;99.90;;;;;;6190966;23;20227;-78
2023/08/09 13:58:50;;;;;;;10.35;10.05;;;19.70;99.90;;;;;;6191004;23;20192;-79
2023/08/09 14:01:17;;;;;;;10.43;10.13;;;19.70;99.90;;;;;;6189649;23;20286;-79
2023/08/09 14:03:44;;;;;;;9.95;9.65;;;19.60;99.90;;;;;;6190760;23;20685;-79
2023/08/09 14:06:11;;;;;;;9.95;9.65;;;19.50;99.90;;;;;;6200496;23;20202;-78
2023/08/09 14:08:38;;;;;;;10.20;9.90;;;19.50;99.90;;;;;;6194714;23;20282;-78
2023/08/09 14:11:05;;;;;;;10.23;9.93;;;19.60;99.90;;;;;;6193816;23;20207;-79
2023/08/09 14:13:33;;;;;;;10.00;9.70;;;19.50;99.90;;;;;;6190949;23;20264;-79
2023/08/09 14:16:00;;;;;;;10.10;9.80;;;19.40;99.90;;;;;;6191309;23;20218;-78
2023/08/09 14:18:27;;;;;;;10.10;9.80;;;19.30;99.90;;;;;;6190968;23;20298;-78
2023/08/09 14:20:54;;;;;;;10.48;10.18;;;19.30;99.90;;;;;;6190513;23;20242;-78
2023/08/09 14:23:21;;;;;;;10.13;9.82;;;19.30;99.90;;;;;;6191564;23;20204;-80
2023/08/09 14:25:48;;;;;;;10.02;9.73;;;19.30;99.90;;;;;;6191193;23;20212;-78
2023/08/09 14:28:17;;;;;;;10.35;10.05;;;19.20;99.90;;;;;;6190093;23;20263;-80
2023/08/09 14:30:45;;;;;;;10.13;9.82;;;19.40;99.90;;;;;;6190126;23;20274;-79
2023/08/09 14:33:13;;;;;;;10.10;9.80;;;19.40;99.90;;;;;;6194280;23;20247;-78
2023/08/09 14:35:41;;;;;;;10.00;9.70;;;19.40;99.90;;;;;;6192205;23;20192;-79
2023/08/09 14:38:08;;;;;;;9.93;9.63;;;19.30;99.90;;;;;;6189424;23;20196;-79
2023/08/09 14:40:35;;;;;;;10.30;10.00;;;19.20;99.90;;;;;;6189459;23;20220;-78
2023/08/09 14:43:03;;;;;;;9.88;9.57;;;19.30;99.90;;;;;;6190030;23;20251;-78
2023/08/09 14:45:30;;;;;;;10.10;9.80;;;19.20;99.90;;;;;;6190433;23;20196;-78
2023/08/09 14:47:58;;;;;;;10.02;9.73;;;19.40;99.90;;;;;;6190327;23;20210;-78
2023/08/09 14:50:25;;;;;;;10.00;9.70;;;19.40;99.90;;;;;;6190978;23;20200;-78
2023/08/09 14:52:53;;;;;;;10.30;10.00;;;19.50;99.90;;;;;;6192695;23;20216;-78
2023/08/09 14:55:21;;;;;;;9.88;9.57;;;19.50;99.90;;;;;;6191076;23;20200;-78
2023/08/09 14:57:48;;;;;;;10.02;9.73;;;19.50;99.90;;;;;;6192589;23;20204;-79
2023/08/09 15:00:17;;;;;;;10.30;10.00;;;19.60;99.90;;;;;;6191150;23;20206;-79
2023/08/09 15:02:44;;;;;;;10.10;9.80;;;19.70;99.90;;;;;;6190078;23;20203;-79
2023/08/09 15:05:12;;;;;;;10.10;9.80;;;19.80;99.90;;;;;;6190756;23;20196;-78
2023/08/09 15:07:39;;;;;;;10.48;10.18;;;19.80;99.90;;;;;;6191019;23;20196;-78
2023/08/09 15:10:07;;;;;;;10.40;10.10;;;19.70;99.90;;;;;;6194570;23;20203;-79
2023/08/09 15:12:34;;;;;;;10.30;10.00;;;19.80;99.90;;;;;;6192876;23;20192;-79
2023/08/09 15:15:01;;;;;;;10.20;9.90;;;19.80;99.90;;;;;;6194813;23;20346;-80
2023/08/09 15:17:29;;;;;;;10.05;9.75;;;19.80;99.90;;;;;;6194357;23;20206;-79
2023/08/09 15:19:56;;;;;;;10.25;9.95;;;19.80;99.90;;;;;;6194888;23;20203;-80
2023/08/09 15:22:25;;;;;;;10.30;10.00;;;19.80;99.90;;;;;;6192134;23;20283;-80
2023/08/09 15:25:01;;;;;;;10.10;9.80;;;19.80;99.90;;;;;;6199325;23;20198;-80
2023/08/09 15:27:28;;;;;;;10.35;10.05;;;19.90;99.90;;;;;;6196001;23;20199;-79
2023/08/09 15:29:55;;;;;;;10.30;10.00;;;19.90;99.90;;;;;;6196010;23;20224;-80
2023/08/09 15:32:22;;;;;;;10.40;10.10;;;19.80;99.90;;;;;;6194072;23;20204;-80
2023/08/09 15:34:49;;;;;;;10.20;9.90;;;19.70;99.90;;;;;;6192267;23;20208;-79
2023/08/09 15:37:16;;;;;;;10.40;10.10;;;19.70;99.90;;;;;;6193586;23;20196;-83
2023/08/09 15:39:45;;;;;;;10.20;9.90;;;19.70;99.90;;;;;;6194187;23;20203;-80
2023/08/09 15:42:12;;;;;;;9.82;9.52;;;19.60;99.90;;;;;;6193743;23;20275;-80
2023/08/09 15:44:39;;;;;;;9.90;9.60;;;19.40;99.90;;;;;;6193113;23;20200;-80
2023/08/09 15:47:06;;;;;;;9.80;9.50;;;19.30;99.90;;;;;;6194848;23;20206;-79
2023/08/09 15:49:33;;;;;;;9.68;9.38;;;19.30;99.90;;;;;;6209943;23;20219;-80
2023/08/09 15:52:00;;;;;;;9.90;9.60;;;19.30;99.90;;;;;;6211283;23;20196;-79
2023/08/09 15:54:27;;;;;;;10.00;9.70;;;19.30;99.90;;;;;;6212090;22;20231;-80
2023/08/09 15:56:57;;;;;;;10.10;9.80;;;19.30;99.90;;;;;;6212780;23;20188;-78
2023/08/09 15:59:24;;;;;;;10.35;10.05;;;19.20;99.90;;;;;;6198030;23;20235;-79
2023/08/09 16:01:51;;;;;;;10.50;10.20;;;19.10;99.90;;;;;;6196594;23;20196;-80
2023/08/09 16:04:19;;;;;;;10.20;9.90;;;19.00;99.90;;;;;;6193959;23;20283;-80
2023/08/09 16:06:46;;;;;;;10.13;9.82;;;19.00;99.90;;;;;;6194286;22;20230;-79
2023/08/09 16:09:15;;;;;;;10.10;9.80;;;19.00;99.90;;;;;;6193629;23;20206;-81
2023/08/09 16:11:43;;;;;;;10.38;10.07;;;18.80;99.90;;;;;;6191328;23;20199;-79
2023/08/09 16:14:11;;;;;;;10.32;10.02;;;18.80;99.90;;;;;;6198119;23;20215;-79
2023/08/09 16:16:38;;;;;;;10.30;10.00;;;18.80;99.90;;;;;;6192666;23;20246;-79
2023/08/09 16:19:06;;;;;;;10.10;9.80;;;18.80;99.90;;;;;;6191018;23;20282;-80
2023/08/09 16:21:34;;;;;;;10.32;10.02;;;18.90;99.90;;;;;;6192550;23;20261;-79
2023/08/09 16:24:03;;;;;;;10.07;9.77;;;18.80;99.90;;;;;;6191431;23;20299;-79
2023/08/09 16:26:31;;;;;;;9.80;9.50;;;18.90;99.90;;;;;;6190772;23;20245;-79
2023/08/09 16:28:58;;;;;;;10.20;9.90;;;19.00;99.90;;;;;;6190701;23;20274;-80
2023/08/09 16:31:27;;;;;;;10.48;10.18;;;18.90;99.90;;;;;;6191368;23;20195;-79
2023/08/09 16:33:54;;;;;;;10.20;9.90;;;19.00;99.90;;;;;;6189348;23;20202;-78
2023/08/09 16:36:21;;;;;;;10.38;10.07;;;19.10;99.90;;;;;;6188138;23;20202;-77
2023/08/09 16:38:48;;;;;;;10.30;10.00;;;19.20;99.90;;;;;;6187376;23;20203;-79
2023/08/09 16:41:15;;;;;;;10.38;10.07;;;19.20;99.90;;;;;;6186894;23;20207;-79
2023/08/09 16:43:42;;;;;;;10.30;10.00;;;19.40;99.90;;;;;;6186601;23;20214;-78
2023/08/09 16:46:09;;;;;;;10.02;9.73;;;19.70;99.90;;;;;;6187105;23;20210;-78
2023/08/09 16:48:37;;;;;;;10.07;9.77;;;20.00;99.90;;;;;;6187020;23;20302;-78
2023/08/09 16:51:05;;;;;;;10.20;9.90;;;20.30;99.90;;;;;;6187021;23;20199;-78
2023/08/09 16:53:32;;;;;;;10.10;9.80;;;20.50;99.90;;;;;;6187238;23;20210;-79
2023/08/09 16:55:59;;;;;;;10.40;10.10;;;20.70;99.90;;;;;;6188081;23;20230;-79
2023/08/09 16:58:27;;;;;;;10.20;9.90;;;20.80;99.90;;;;;;6190031;23;20215;-79
2023/08/09 17:00:54;;;;;;;10.60;10.30;;;20.70;99.90;;;;;;6189287;23;20207;-79
2023/08/09 17:03:21;;;;;;;10.70;10.40;;;20.70;99.90;;;;;;6189617;23;20990;-79
2023/08/09 17:05:49;;;;;;;10.48;10.18;;;21.00;99.90;;;;;;6195528;23;20255;-79
2023/08/09 17:08:16;;;;;;;10.55;10.25;;;21.50;99.90;;;;;;6188758;23;20215;-79
2023/08/09 17:10:43;;;;;;;10.60;10.30;;;21.90;99.90;;;;;;6190526;23;20208;-79
2023/08/09 17:13:11;;;;;;;10.48;10.18;;;22.20;99.90;;;;;;6191878;23;20210;-80
2023/08/09 17:15:38;;;;;;;10.15;9.85;;;22.60;99.90;;;;;;6191462;23;20204;-79
2023/08/09 17:18:06;;;;;;;10.30;10.00;;;23.10;99.90;;;;;;6190400;23;20223;-79
2023/08/09 17:20:33;;;;;;;10.05;9.75;;;23.50;99.90;;;;;;6189617;23;20212;-79
2023/08/09 17:23:01;;;;;;;9.98;9.68;;;23.60;99.90;;;;;;6190328;23;20199;-81
2023/08/09 17:25:29;;;;;;;10.18;9.88;;;23.60;99.90;;;;;;6192720;23;20195;-79
2023/08/09 17:27:57;;;;;;;9.88;9.57;;;23.60;99.90;;;;;;6191892;23;20241;-81
2023/08/09 17:30:24;;;;;;;10.02;9.73;;;23.90;99.90;;;;;;6191450;23;20207;-79
2023/08/09 17:32:51;;;;;;;10.07;9.77;;;24.00;99.90;;;;;;6195375;23;20237;-79
2023/08/09 17:35:18;;;;;;;10.20;9.90;;;24.00;99.90;;;;;;6195723;23;20260;-80
2023/08/09 17:37:45;;;;;;;10.23;9.93;;;23.90;99.90;;;;;;6194858;23;20301;-79
2023/08/09 17:40:14;;;;;;;10.13;9.82;;;24.10;99.90;;;;;;6195534;23;20262;-79
2023/08/09 17:42:42;;;;;;;10.00;9.70;;;24.30;99.90;;;;;;6193899;23;20226;-79
2023/08/09 17:45:10;;;;;;;10.10;9.80;;;24.30;99.90;;;;;;6194148;23;20242;-79
2023/08/09 17:47:37;;;;;;;10.10;9.80;;;24.10;99.90;;;;;;6195166;23;20230;-78
2023/08/09 17:50:05;;;;;;;9.85;9.55;;;23.90;99.90;;;;;;6192260;23;20230;-80
2023/08/09 17:52:34;;;;;;;9.60;9.30;;;23.40;99.90;;;;;;6192444;23;20203;-80
2023/08/09 17:55:01;;;;;;;9.90;9.60;;;22.90;99.90;;;;;;6193162;22;20195;-79
2023/08/09 17:57:29;;;;;;;9.60;9.30;;;22.50;99.90;;;;;;6199267;23;20232;-79
2023/08/09 17:59:56;;;;;;;9.60;9.30;;;22.10;99.90;;;;;;6196327;23;20210;-79
2023/08/09 18:02:23;;;;;;;9.48;9.18;;;21.80;99.90;;;;;;6194278;23;20200;-79
2023/08/09 18:04:50;;;;;;;9.90;9.60;;;21.20;99.90;;;;;;6193626;23;20279;-79
2023/08/09 18:07:18;;;;;;;9.70;9.40;;;20.80;99.90;;;;;;6192868;23;20192;-79
2023/08/09 18:09:45;;;;;;;9.35;9.05;;;20.60;99.90;;;;;;6191704;23;20207;-79
2023/08/09 18:12:12;;;;;;;9.50;9.20;;;20.30;99.90;;;;;;6189055;23;20199;-78
2023/08/09 18:14:40;;;;;;;9.60;9.30;;;20.30;99.90;;;;;;6192745;23;20223;-79
2023/08/09 18:17:07;;;;;;;9.50;9.20;;;20.20;99.90;;;;;;6190984;23;20278;-78
2023/08/09 18:19:34;;;;;;;9.50;9.20;;;20.00;99.90;;;;;;6199047;23;20233;-78
2023/08/09 18:22:01;;;;;;;9.30;9.00;;;19.90;99.90;;;;;;6196087;23;20226;-79
2023/08/09 18:24:28;;;;;;;9.38;9.07;;;19.60;99.90;;;;;;6197330;23;20263;-79
2023/08/09 18:26:55;;;;;;;9.50;9.20;;;19.60;99.90;;;;;;6199190;23;20279;-79
2023/08/09 18:29:23;;;;;;;9.60;9.30;;;19.60;99.90;;;;;;6199667;23;20223;-79
2023/08/09 18:31:51;;;;;;;9.77;9.48;;;19.40;99.90;;;;;;6199561;23;20196;-80
2023/08/09 18:34:18;;;;;;;10.02;9.73;;;19.40;99.90;;;;;;6196553;23;20207;-79
2023/08/09 18:36:45;;;;;;;10.00;9.70;;;19.30;99.90;;;;;;6194984;23;20234;-79
2023/08/09 18:39:12;;;;;;;9.85;9.55;;;19.20;99.90;;;;;;6195414;23;20298;-80
2023/08/09 18:41:39;;;;;;;10.30;10.00;;;19.20;99.90;;;;;;6195383;23;20200;-78
2023/08/09 18:44:06;;;;;;;10.20;9.90;;;19.00;99.90;;;;;;6192431;23;20371;-79
2023/08/09 18:46:33;;;;;;;9.95;9.65;;;18.90;99.90;;;;;;6194112;23;20260;-80